Hlavní strana
METAR-TAF:

METAR-TAF

Letiště :

N'Djamena, Čad

zeměpisná šířka: 12-08N, zeměpisná délka: 015-02E, výška: 295 m

Aktuální stav počasí

Zpráva byla vytvořena před 20 minutami, v 02:00 UTC
Jižní vítr 2 kt
Teplota 23°C
Vlhkost vzduchu 94%
Tlak 1012 hPa
Viditelnost 10 km a více
Žádná oblačnost pod 1500 m, nevyskytují se cumulonimby.

METAR: FTTJ 170200Z 19002KT CAVOK 23/22 Q1012 NOSIG

Čas: 03:20 (02:20 UTC)

Předpověď počasí

Zpráva byla vytvořena před 3 hodinami a 20 minutami, v 23:00 UTC
Předpověď platná od 17 v 00 UTC do 18 v 06 UTC
Jihozápadní vítr 6 kt
Viditelnost 10 km a více
Skoro jasno ve výšce 3000 ft
Pravděpodobnost 30% :
Dočasný
od 17 v 10 UTC do 17 v 18 UTC
vítr z různých směrů 15 kt s nárazy do 30 kt
Viditelnost: 4000 m
Polojasno ve výšce 2000 ft
Skoro jasno ve výšce 3300 ft, Cumulonimbus.
bouřka, déšť

TAF: FTTJ 162300Z 1700/1806 22006KT 9999 FEW030 PROB30 TEMPO 1710/1718 VRB15G30KT 4000 TSRA SCT020 FEW033CB

Stav a předpovědi počasí z více než 4 000 letišť (zprávy METAR a TAF).

Červené a žluté tečky na mapě představují dostupné meteorologické stanice.

Když kurzor umístíte na tečku, zobrazí se název stanice.

Pak kliknutím zobrazíte stav a předpověď počasí.

Chcete-li změnit mapu, kliknutím na zelené tlačítko se znaménkem +mapu přiblížíte, kliknutím na zelené tlačítko se znaménkem – mapu oddálíte a kliknutím na zelené šipky přejdete na sousední mapy.


METAR-TAF: